Station History


Daily Summary for January 11, 2012 Units:  English    Metric   Both
« Previous Day
Next Day »
Daily Weekly Monthly Yearly Custom
  High: Low: Average:
Temperature: 64.7 °F 35.2 °F 46.5 °F
Dew Point: 42.8 °F 31.9 °F 37.5 °F
Humidity: 91% 43% 73%
Wind Speed: 4.6mph 0.0mph 2mph
Wind Gust: 4.6mph - -
Wind- - West
Pressure: 30.14 in 30.03 in -
Precipitation: 0.00 in    
Historical Graphs
 
 
Tabular Data for January 11, 2012
Time Temperature Dew Point Pressure Wind Wind Speed Wind Gust Humidity Rainfall Rate (Hourly)
00:01 39.4 °F 35.0 °F 30.11 in Calm     84% 0.00 in
00:06 39.5 °F 35.4 °F 30.10 in Calm     85% 0.00 in
00:11 39.3 °F 34.9 °F 30.10 in Calm     84% 0.00 in
00:16 39.1 °F 34.7 °F 30.10 in Calm     84% 0.00 in
00:21 38.8 °F 34.4 °F 30.10 in Calm     84% 0.00 in
00:26 38.7 °F 34.6 °F 30.10 in Calm     85% 0.00 in
00:31 38.6 °F 34.5 °F 30.10 in Calm     85% 0.00 in
00:36 38.4 °F 34.3 °F 30.10 in Calm     85% 0.00 in
00:41 38.2 °F 34.4 °F 30.10 in Calm     86% 0.00 in
00:46 38.0 °F 34.2 °F 30.10 in Calm     86% 0.00 in
00:51 37.8 °F 34.0 °F 30.10 in Calm     86% 0.00 in
00:56 37.7 °F 34.2 °F 30.10 in Calm     87% 0.00 in
01:01 38.0 °F 34.8 °F 30.10 in Calm     88% 0.00 in
01:06 38.5 °F 34.7 °F 30.10 in Calm     86% 0.00 in
01:11 38.8 °F 34.7 °F 30.10 in Calm     85% 0.00 in
01:16 38.9 °F 34.8 °F 30.10 in Calm     85% 0.00 in
01:21 38.8 °F 34.4 °F 30.10 in Calm     84% 0.00 in
01:26 38.6 °F 34.2 °F 30.10 in Calm     84% 0.00 in
01:31 38.4 °F 34.0 °F 30.10 in Calm     84% 0.00 in
01:36 38.1 °F 34.0 °F 30.10 in Calm     85% 0.00 in
01:41 38.1 °F 34.0 °F 30.10 in Calm     85% 0.00 in
01:46 38.1 °F 34.0 °F 30.10 in Calm     85% 0.00 in
01:51 38.0 °F 33.9 °F 30.11 in Calm     85% 0.00 in
01:56 38.0 °F 34.2 °F 30.11 in Calm     86% 0.00 in
02:01 38.1 °F 34.0 °F 30.11 in Calm     85% 0.00 in
02:06 38.5 °F 34.4 °F 30.11 in Calm     85% 0.00 in
02:11 38.6 °F 34.2 °F 30.11 in Calm     84% 0.00 in
02:16 38.4 °F 34.0 °F 30.11 in Calm     84% 0.00 in
02:21 38.1 °F 33.7 °F 30.11 in Calm     84% 0.00 in
02:26 37.9 °F 33.8 °F 30.11 in Calm     85% 0.00 in
02:31 37.6 °F 33.5 °F 30.12 in Calm     85% 0.00 in
02:36 37.4 °F 33.6 °F 30.11 in Calm     86% 0.00 in
02:41 37.2 °F 33.4 °F 30.12 in Calm     86% 0.00 in
02:46 36.9 °F 33.1 °F 30.12 in Calm     86% 0.00 in
02:51 36.6 °F 32.8 °F 30.12 in Calm     86% 0.00 in
02:56 36.3 °F 32.5 °F 30.12 in Calm     86% 0.00 in
03:01 36.0 °F 32.2 °F 30.12 in Calm     86% 0.00 in
03:06 35.9 °F 32.7 °F 30.11 in Calm     88% 0.00 in
03:11 36.0 °F 32.8 °F 30.11 in Calm     88% 0.00 in
03:16 36.1 °F 33.2 °F 30.11 in Calm     89% 0.00 in
03:21 36.4 °F 33.5 °F 30.11 in Calm     89% 0.00 in
03:26 36.4 °F 33.5 °F 30.11 in Calm     89% 0.00 in
03:32 36.5 °F 33.6 °F 30.11 in Calm     89% 0.00 in
03:37 36.7 °F 33.5 °F 30.11 in Calm     88% 0.00 in
03:42 36.7 °F 33.2 °F 30.11 in Calm     87% 0.00 in
03:47 36.5 °F 33.0 °F 30.11 in Calm     87% 0.00 in
03:52 36.5 °F 33.0 °F 30.11 in Calm     87% 0.00 in
03:57 36.3 °F 32.8 °F 30.12 in Calm     87% 0.00 in
04:02 36.2 °F 32.7 °F 30.12 in Calm     87% 0.00 in
04:07 36.0 °F 32.5 °F 30.12 in Calm     87% 0.00 in
04:12 35.9 °F 32.4 °F 30.12 in Calm     87% 0.00 in
04:17 35.8 °F 32.6 °F 30.12 in Calm     88% 0.00 in
04:22 35.7 °F 32.5 °F 30.12 in Calm     88% 0.00 in
04:27 35.6 °F 32.4 °F 30.12 in Calm     88% 0.00 in
04:32 35.5 °F 32.6 °F 30.12 in Calm     89% 0.00 in
04:37 35.4 °F 32.5 °F 30.12 in Calm     89% 0.00 in
04:42 35.4 °F 32.5 °F 30.12 in Calm     89% 0.00 in
04:47 35.3 °F 32.4 °F 30.11 in Calm     89% 0.00 in
04:52 35.3 °F 32.4 °F 30.11 in Calm     89% 0.00 in
04:57 35.2 °F 32.3 °F 30.11 in Calm     89% 0.00 in
05:02 35.2 °F 32.6 °F 30.11 in Calm     90% 0.00 in
05:07 35.3 °F 32.7 °F 30.11 in Calm     90% 0.00 in
05:12 35.5 °F 33.1 °F 30.11 in Calm     91% 0.00 in
05:17 36.1 °F 33.5 °F 30.11 in Calm     90% 0.00 in
05:22 36.4 °F 33.5 °F 30.11 in Calm     89% 0.00 in
05:27 36.4 °F 33.2 °F 30.11 in Calm     88% 0.00 in
05:32 36.4 °F 33.2 °F 30.11 in Calm     88% 0.00 in
05:37 36.5 °F 33.3 °F 30.11 in Calm     88% 0.00 in
05:42 36.7 °F 33.2 °F 30.11 in Calm     87% 0.00 in
05:47 36.6 °F 32.8 °F 30.11 in Calm     86% 0.00 in
05:52 36.5 °F 33.0 °F 30.11 in Calm     87% 0.00 in
05:57 36.6 °F 32.8 °F 30.11 in Calm     86% 0.00 in
06:02 36.6 °F 32.8 °F 30.11 in Calm     86% 0.00 in
06:07 36.5 °F 32.7 °F 30.11 in Calm     86% 0.00 in
06:12 36.5 °F 32.7 °F 30.12 in Calm     86% 0.00 in
06:17 36.7 °F 32.9 °F 30.11 in Calm     86% 0.00 in
06:22 36.7 °F 32.9 °F 30.12 in Calm     86% 0.00 in
06:27 36.8 °F 32.7 °F 30.11 in Calm     85% 0.00 in
06:32 36.7 °F 32.6 °F 30.12 in Calm     85% 0.00 in
06:37 36.7 °F 32.6 °F 30.12 in Calm     85% 0.00 in
06:42 36.7 °F 32.6 °F 30.12 in Calm     85% 0.00 in
06:47 36.7 °F 32.6 °F 30.12 in Calm     85% 0.00 in
06:52 36.5 °F 32.4 °F 30.12 in Calm     85% 0.00 in
06:57 36.4 °F 32.3 °F 30.12 in Calm     85% 0.00 in
07:02 36.2 °F 32.1 °F 30.13 in Calm     85% 0.00 in
07:07 36.1 °F 32.3 °F 30.12 in Calm     86% 0.00 in
07:12 36.3 °F 32.5 °F 30.13 in Calm     86% 0.00 in
07:17 36.3 °F 32.5 °F 30.13 in Calm     86% 0.00 in
07:22 36.2 °F 32.1 °F 30.13 in Calm     85% 0.00 in
07:27 36.0 °F 32.2 °F 30.13 in Calm     86% 0.00 in
07:32 35.9 °F 32.1 °F 30.13 in Calm     86% 0.00 in
07:37 35.7 °F 31.9 °F 30.13 in Calm     86% 0.00 in
07:42 35.7 °F 32.2 °F 30.13 in Calm     87% 0.00 in
07:47 35.6 °F 32.1 °F 30.13 in Calm     87% 0.00 in
07:52 35.9 °F 32.7 °F 30.13 in Calm     88% 0.00 in
07:57 36.1 °F 32.9 °F 30.13 in Calm     88% 0.00 in
08:02 36.4 °F 33.2 °F 30.13 in Calm     88% 0.00 in
08:07 36.6 °F 33.1 °F 30.13 in Calm     87% 0.00 in
08:12 37.1 °F 33.3 °F 30.13 in Calm     86% 0.00 in
08:17 37.6 °F 33.5 °F 30.14 in Calm     85% 0.00 in
08:22 37.9 °F 33.8 °F 30.14 in Calm     85% 0.00 in
08:27 38.4 °F 34.0 °F 30.14 in Calm     84% 0.00 in
08:32 38.9 °F 34.2 °F 30.14 in Calm     83% 0.00 in
08:37 39.4 °F 34.4 °F 30.14 in Calm     82% 0.00 in
08:42 39.7 °F 34.7 °F 30.14 in Calm     82% 0.00 in
08:47 39.8 °F 34.8 °F 30.14 in Calm     82% 0.00 in
08:52 39.9 °F 34.9 °F 30.14 in Calm     82% 0.00 in
08:57 40.1 °F 35.0 °F 30.14 in Calm     82% 0.00 in
09:02 40.7 °F 35.3 °F 30.14 in Calm     81% 0.00 in
09:07 41.1 °F 35.7 °F 30.14 in Calm     81% 0.00 in
09:12 41.4 °F 36.0 °F 30.14 in Calm     81% 0.00 in
09:17 42.1 °F 36.4 °F 30.14 in Calm     80% 0.00 in
09:22 42.8 °F 36.7 °F 30.14 in Calm     79% 0.00 in
09:27 43.8 °F 37.1 °F 30.14 in Calm     77% 0.00 in
09:32 44.6 °F 37.2 °F 30.14 in Calm     75% 0.00 in
09:37 45.2 °F 37.4 °F 30.14 in Calm     74% 0.00 in
09:42 45.8 °F 38.0 °F 30.14 in Calm     74% 0.00 in
09:47 46.6 °F 38.8 °F 30.14 in Calm     74% 0.00 in
09:52 47.3 °F 39.1 °F 30.14 in Calm     73% 0.00 in
09:57 48.2 °F 39.6 °F 30.14 in Calm     72% 0.00 in
10:02 49.0 °F 40.4 °F 30.14 in Calm     72% 0.00 in
10:07 49.6 °F 40.2 °F 30.14 in Calm     70% 0.00 in
10:13 50.3 °F 40.5 °F 30.14 in Calm     69% 0.00 in
10:18 51.0 °F 40.0 °F 30.13 in SW 1.0 mph 1.0 mph 66% 0.00 in
10:23 51.5 °F 40.1 °F 30.13 in SW 1.2 mph 1.2 mph 65% 0.00 in
10:28 52.1 °F 39.9 °F 30.13 in SSW 1.2 mph 1.2 mph 63% 0.00 in
10:33 52.5 °F 39.8 °F 30.13 in WSW 1.2 mph   62% 0.00 in
10:38 52.9 °F 40.6 °F 30.13 in Calm     63% 0.00 in
10:43 53.5 °F 40.8 °F 30.13 in SW 1.2 mph   62% 0.00 in
10:48 53.8 °F 41.1 °F 30.13 in Calm     62% 0.00 in
10:53 54.3 °F 40.7 °F 30.12 in West 1.2 mph   60% 0.00 in
10:58 54.7 °F 40.6 °F 30.12 in SW 1.2 mph   59% 0.00 in
11:03 55.1 °F 41.5 °F 30.12 in WSW 1.2 mph 1.2 mph 60% 0.00 in
11:08 55.5 °F 41.4 °F 30.12 in Calm   0.4 mph 59% 0.00 in
11:13 55.8 °F 41.7 °F 30.12 in West 1.0 mph 1.0 mph 59% 0.00 in
11:18 56.2 °F 41.6 °F 30.12 in West 1.2 mph   58% 0.00 in
11:23 56.7 °F 41.6 °F 30.12 in West 1.2 mph 1.2 mph 57% 0.00 in
11:28 57.1 °F 41.5 °F 30.12 in SW 1.2 mph 1.2 mph 56% 0.00 in
11:33 57.5 °F 41.9 °F 30.11 in Calm     56% 0.00 in
11:38 57.9 °F 41.8 °F 30.10 in NNW 1.2 mph 1.2 mph 55% 0.00 in
11:43 58.1 °F 42.0 °F 30.10 in NNW 1.2 mph 1.2 mph 55% 0.00 in
11:48 58.3 °F 42.2 °F 30.10 in NNW 2.3 mph 2.3 mph 55% 0.00 in
11:53 58.8 °F 42.2 °F 30.10 in NNW 3.5 mph 3.5 mph 54% 0.00 in
11:58 58.9 °F 41.8 °F 30.09 in North 1.2 mph 1.2 mph 53% 0.00 in
12:03 59.3 °F 42.2 °F 30.09 in NW 1.2 mph 1.2 mph 53% 0.00 in
12:08 59.7 °F 42.0 °F 30.08 in NNE 1.2 mph 1.2 mph 52% 0.00 in
12:13 60.2 °F 42.5 °F 30.08 in North 1.2 mph 1.2 mph 52% 0.00 in
12:18 60.9 °F 42.6 °F 30.07 in NNW 1.2 mph 1.2 mph 51% 0.00 in
12:23 61.1 °F 42.8 °F 30.07 in NNW 3.5 mph 3.5 mph 51% 0.00 in
12:28 61.3 °F 42.0 °F 30.06 in NNW 2.3 mph 2.3 mph 49% 0.00 in
12:33 61.8 °F 42.4 °F 30.06 in North 2.3 mph 2.3 mph 49% 0.00 in
12:38 62.6 °F 42.6 °F 30.06 in North 3.5 mph 3.5 mph 48% 0.00 in
12:43 62.9 °F 42.4 °F 30.05 in NW 3.5 mph 3.5 mph 47% 0.00 in
12:48 63.3 °F 42.2 °F 30.05 in WNW 3.5 mph 3.5 mph 46% 0.00 in
12:53 63.2 °F 42.1 °F 30.05 in NNW 3.5 mph 3.5 mph 46% 0.00 in
12:58 63.4 °F 42.8 °F 30.05 in WNW 2.3 mph 2.3 mph 47% 0.00 in
13:03 63.5 °F 41.2 °F 30.05 in NNW 2.3 mph 2.3 mph 44% 0.00 in
13:08 63.6 °F 41.9 °F 30.05 in WSW 4.6 mph 4.6 mph 45% 0.00 in
13:13 63.7 °F 41.9 °F 30.04 in WSW 3.5 mph 3.5 mph 45% 0.00 in
13:18 63.7 °F 41.9 °F 30.04 in SE 2.3 mph 2.3 mph 45% 0.00 in
13:23 63.6 °F 41.9 °F 30.04 in WSW 2.3 mph 2.3 mph 45% 0.00 in
13:28 63.9 °F 42.1 °F 30.04 in WNW 1.2 mph 1.2 mph 45% 0.00 in
13:33 64.1 °F 41.7 °F 30.03 in West 3.5 mph 3.5 mph 44% 0.00 in
13:38 63.9 °F 42.1 °F 30.03 in WSW 2.3 mph 2.3 mph 45% 0.00 in
13:43 63.8 °F 42.0 °F 30.03 in West 3.5 mph 3.5 mph 45% 0.00 in
13:48 63.5 °F 42.3 °F 30.03 in Calm     46% 0.00 in
13:53 63.2 °F 41.5 °F 30.03 in West 3.5 mph 3.5 mph 45% 0.00 in
13:58 62.7 °F 41.6 °F 30.03 in Calm     46% 0.00 in
14:03 62.6 °F 41.5 °F 30.04 in North 2.3 mph 2.3 mph 46% 0.00 in
14:08 62.4 °F 40.8 °F 30.04 in NW 2.3 mph 2.3 mph 45% 0.00 in
14:13 62.5 °F 40.9 °F 30.03 in WNW 1.2 mph   45% 0.00 in
14:18 63.1 °F 41.4 °F 30.04 in SW 1.2 mph 1.2 mph 45% 0.00 in
14:23 63.6 °F 41.3 °F 30.04 in North 2.3 mph 2.3 mph 44% 0.00 in
14:28 63.7 °F 41.4 °F 30.04 in Calm     44% 0.00 in
14:33 63.8 °F 41.5 °F 30.04 in WSW 1.2 mph   44% 0.00 in
14:37 64.0 °F 41.6 °F 30.04 in Calm     44% 0.00 in
14:42 64.1 °F 41.1 °F 30.03 in NNW 2.3 mph 2.3 mph 43% 0.00 in
14:47 64.0 °F 41.0 °F 30.03 in North 2.3 mph 2.3 mph 43% 0.00 in
14:52 64.0 °F 41.6 °F 30.04 in NNW 2.3 mph 2.3 mph 44% 0.00 in
14:57 64.2 °F 41.2 °F 30.04 in NNW 3.5 mph 3.5 mph 43% 0.00 in
15:02 64.2 °F 41.8 °F 30.03 in Calm     44% 0.00 in
15:07 64.6 °F 41.6 °F 30.03 in SSW 2.3 mph 2.3 mph 43% 0.00 in
15:12 64.7 °F 41.7 °F 30.03 in Calm     43% 0.00 in
15:17 64.5 °F 41.5 °F 30.04 in West 2.0 mph 2.0 mph 43% 0.00 in
15:22 64.3 °F 41.3 °F 30.03 in West 1.2 mph 1.2 mph 43% 0.00 in
15:27 64.4 °F 42.0 °F 30.04 in NNE 1.2 mph   44% 0.00 in
15:32 64.1 °F 41.7 °F 30.04 in Calm     44% 0.00 in
15:37 63.6 °F 41.3 °F 30.04 in WNW 1.2 mph 1.2 mph 44% 0.00 in
15:42 63.4 °F 41.7 °F 30.04 in Calm     45% 0.00 in
15:47 63.2 °F 41.5 °F 30.04 in WSW 1.2 mph   45% 0.00 in
15:52 62.6 °F 41.5 °F 30.04 in West 2.3 mph 2.3 mph 46% 0.00 in
15:57 62.1 °F 41.6 °F 30.04 in Calm     47% 0.00 in
16:02 61.8 °F 41.9 °F 30.04 in SSW 1.0 mph 1.0 mph 48% 0.00 in
16:07 61.4 °F 41.5 °F 30.04 in WSW 1.2 mph   48% 0.00 in
16:12 61.2 °F 41.9 °F 30.04 in SSW 2.3 mph   49% 0.00 in
16:17 60.8 °F 42.0 °F 30.04 in SSW 1.2 mph 1.2 mph 50% 0.00 in
16:23 60.4 °F 41.7 °F 30.05 in Calm     50% 0.00 in
16:28 60.1 °F 41.9 °F 30.05 in Calm     51% 0.00 in
16:33 59.8 °F 41.6 °F 30.05 in Calm     51% 0.00 in
16:38 59.4 °F 41.8 °F 30.05 in Calm     52% 0.00 in
16:43 59.0 °F 41.9 °F 30.05 in Calm     53% 0.00 in
16:48 58.6 °F 41.5 °F 30.05 in Calm     53% 0.00 in
16:53 58.1 °F 41.5 °F 30.05 in Calm     54% 0.00 in
16:58 57.6 °F 41.5 °F 30.05 in Calm     55% 0.00 in
17:03 57.1 °F 41.5 °F 30.05 in Calm     56% 0.00 in
17:08 56.6 °F 41.5 °F 30.05 in Calm     57% 0.00 in
17:13 56.1 °F 41.5 °F 30.05 in Calm     58% 0.00 in
17:18 55.4 °F 41.3 °F 30.06 in Calm     59% 0.00 in
17:23 54.7 °F 41.1 °F 30.06 in Calm     60% 0.00 in
17:28 53.9 °F 40.8 °F 30.06 in Calm     61% 0.00 in
17:33 53.2 °F 40.9 °F 30.06 in Calm     63% 0.00 in
17:38 52.6 °F 40.8 °F 30.06 in Calm     64% 0.00 in
17:43 52.0 °F 41.0 °F 30.06 in Calm     66% 0.00 in
17:48 51.7 °F 41.1 °F 30.06 in Calm     67% 0.00 in
17:53 51.4 °F 40.8 °F 30.06 in Calm     67% 0.00 in
17:58 51.3 °F 40.7 °F 30.06 in Calm     67% 0.00 in
18:03 51.0 °F 40.8 °F 30.06 in Calm     68% 0.00 in
18:08 50.6 °F 40.8 °F 30.06 in Calm     69% 0.00 in
18:13 50.1 °F 40.7 °F 30.06 in Calm     70% 0.00 in
18:18 49.9 °F 40.5 °F 30.06 in Calm     70% 0.00 in
18:23 49.5 °F 40.5 °F 30.06 in Calm     71% 0.00 in
18:28 49.1 °F 40.5 °F 30.06 in Calm     72% 0.00 in
18:33 48.6 °F 40.3 °F 30.06 in Calm     73% 0.00 in
18:38 48.2 °F 39.9 °F 30.06 in Calm     73% 0.00 in
18:43 47.8 °F 40.3 °F 30.06 in Calm     75% 0.00 in
18:48 47.5 °F 40.3 °F 30.07 in Calm     76% 0.00 in
18:53 47.2 °F 40.4 °F 30.06 in Calm     77% 0.00 in
18:58 47.0 °F 40.5 °F 30.06 in Calm     78% 0.00 in
19:03 46.8 °F 40.3 °F 30.06 in Calm     78% 0.00 in
19:08 46.8 °F 40.6 °F 30.06 in Calm     79% 0.00 in
19:13 46.7 °F 40.2 °F 30.06 in Calm     78% 0.00 in
19:18 46.5 °F 40.0 °F 30.07 in Calm     78% 0.00 in
19:23 46.2 °F 39.7 °F 30.07 in Calm     78% 0.00 in
19:28 45.9 °F 39.4 °F 30.06 in Calm     78% 0.00 in
19:33 45.6 °F 39.5 °F 30.06 in Calm     79% 0.00 in
19:38 45.2 °F 39.4 °F 30.06 in Calm     80% 0.00 in
19:43 45.0 °F 39.5 °F 30.06 in Calm     81% 0.00 in
19:48 44.8 °F 39.6 °F 30.06 in Calm     82% 0.00 in
19:53 44.8 °F 39.6 °F 30.06 in Calm     82% 0.00 in
19:58 44.7 °F 39.5 °F 30.07 in Calm     82% 0.00 in
20:03 44.5 °F 39.3 °F 30.07 in Calm     82% 0.00 in
20:08 44.1 °F 39.0 °F 30.06 in Calm     82% 0.00 in
20:13 43.9 °F 38.8 °F 30.06 in Calm     82% 0.00 in
20:18 43.7 °F 39.2 °F 30.06 in Calm     84% 0.00 in
20:23 43.9 °F 39.4 °F 30.07 in Calm     84% 0.00 in
20:28 43.7 °F 39.2 °F 30.07 in Calm     84% 0.00 in
20:33 43.7 °F 39.5 °F 30.07 in Calm     85% 0.00 in
20:38 43.5 °F 39.0 °F 30.07 in Calm     84% 0.00 in
20:43 43.4 °F 39.2 °F 30.07 in Calm     85% 0.00 in
20:48 43.3 °F 39.1 °F 30.07 in Calm     85% 0.00 in
20:53 43.4 °F 39.2 °F 30.07 in Calm     85% 0.00 in
20:58 43.4 °F 38.9 °F 30.07 in Calm     84% 0.00 in
21:00 43.4 °F 38.9 °F 30.07 in Calm     84% 0.00 in
21:01 43.3 °F 38.5 °F 30.07 in Calm     83% 0.00 in
21:06 43.2 °F 38.7 °F 30.07 in Calm     84% 0.00 in
21:11 43.0 °F 38.5 °F 30.07 in Calm     84% 0.00 in
21:16 42.8 °F 38.0 °F 30.07 in Calm     83% 0.00 in
21:21 42.4 °F 37.9 °F 30.07 in Calm     84% 0.00 in
21:26 42.2 °F 37.7 °F 30.07 in Calm     84% 0.00 in
21:31 41.9 °F 37.4 °F 30.08 in Calm     84% 0.00 in
21:36 41.6 °F 37.1 °F 30.07 in Calm     84% 0.00 in
21:41 41.3 °F 37.1 °F 30.07 in Calm     85% 0.00 in
21:46 41.1 °F 36.9 °F 30.07 in Calm     85% 0.00 in
21:51 40.9 °F 37.0 °F 30.07 in Calm     86% 0.00 in
21:56 40.7 °F 36.8 °F 30.07 in Calm     86% 0.00 in
22:01 40.7 °F 37.4 °F 30.07 in Calm     88% 0.00 in
22:06 41.0 °F 38.0 °F 30.07 in Calm     89% 0.00 in
22:11 41.3 °F 38.3 °F 30.07 in Calm     89% 0.00 in
22:16 41.7 °F 38.1 °F 30.07 in Calm     87% 0.00 in
22:21 42.0 °F 38.1 °F 30.07 in Calm     86% 0.00 in
22:26 42.2 °F 38.3 °F 30.07 in Calm     86% 0.00 in
22:31 42.4 °F 38.2 °F 30.07 in Calm     85% 0.00 in
22:36 42.5 °F 38.0 °F 30.07 in Calm     84% 0.00 in
22:41 42.3 °F 37.5 °F 30.07 in Calm     83% 0.00 in
22:46 42.1 °F 37.3 °F 30.07 in Calm     83% 0.00 in
22:51 41.9 °F 37.4 °F 30.07 in Calm     84% 0.00 in
22:56 41.5 °F 37.0 °F 30.07 in Calm     84% 0.00 in
23:01 41.5 °F 37.3 °F 30.07 in Calm     85% 0.00 in
23:06 41.6 °F 37.1 °F 30.07 in Calm     84% 0.00 in
23:11 41.5 °F 37.0 °F 30.07 in Calm     84% 0.00 in
23:16 41.2 °F 36.7 °F 30.07 in Calm     84% 0.00 in
23:21 40.7 °F 36.2 °F 30.07 in Calm     84% 0.00 in
23:26 40.4 °F 36.2 °F 30.07 in Calm     85% 0.00 in
23:31 40.0 °F 35.9 °F 30.07 in Calm     85% 0.00 in
23:36 39.6 °F 35.5 °F 30.07 in Calm     85% 0.00 in
23:41 40.1 °F 36.8 °F 30.07 in Calm     88% 0.00 in
23:46 40.8 °F 36.9 °F 30.07 in Calm     86% 0.00 in
23:51 40.8 °F 36.6 °F 30.07 in Calm     85% 0.00 in
23:56 40.5 °F 36.0 °F 30.06 in Calm     84% 0.00 in
Compliments of Weather Underground